Time;durP1;ratioP1;P1;durP2;ratioP2;P2;SDS_P1;SDS_P2;PMS_P1;PMS_P2;Temp;Humidity;BMP_temperature;BMP_pressure;BME280_temperature;BME280_humidity;BME280_pressure;Samples;Min_cycle;Max_cycle;Signal;HPM_P1;HPM_P2
2022/02/13 00:00:15;;;;;;;2.70;1.70;;;2.20;99.90;;;;;;5054940;28;20484;-57
2022/02/13 00:02:44;;;;;;;3.08;1.67;;;2.20;1.00;;;;;;5055973;28;20868;-58
2022/02/13 00:05:11;;;;;;;3.35;1.77;;;2.20;1.00;;;;;;5054951;28;20437;-57
2022/02/13 00:07:39;;;;;;;3.83;1.70;;;2.10;1.00;;;;;;5053834;28;20490;-58
2022/02/13 00:10:09;;;;;;;3.55;1.70;;;2.10;62.90;;;;;;5053412;28;20421;-57
2022/02/13 00:12:36;;;;;;;4.80;2.10;;;2.10;63.30;;;;;;5054508;28;20425;-57
2022/02/13 00:15:06;;;;;;;3.03;1.85;;;2.10;1.00;;;;;;5052807;28;20460;-57
2022/02/13 00:17:33;;;;;;;3.58;1.63;;;2.10;1.00;;;;;;5054699;28;20432;-57
2022/02/13 00:20:02;;;;;;;3.10;1.80;;;2.00;99.90;;;;;;5052341;28;20698;-54
2022/02/13 00:22:30;;;;;;;2.83;1.70;;;2.00;1.00;;;;;;5051905;28;20528;-57
2022/02/13 00:24:57;;;;;;;2.80;1.87;;;2.00;1.00;;;;;;5051791;28;20531;-58
2022/02/13 00:27:24;;;;;;;3.40;1.92;;;2.00;99.90;;;;;;5054093;28;20681;-58
2022/02/13 00:29:51;;;;;;;3.97;2.17;;;2.10;99.90;;;;;;5053070;28;20441;-58
2022/02/13 00:32:21;;;;;;;3.67;1.80;;;2.10;99.90;;;;;;5053922;28;20444;-58
2022/02/13 00:34:48;;;;;;;2.10;1.60;;;2.10;99.90;;;;;;5051854;28;20464;-57
2022/02/13 00:37:15;;;;;;;2.85;1.83;;;2.10;99.90;;;;;;5052106;28;20589;-58
2022/02/13 00:39:42;;;;;;;5.18;2.00;;;2.00;99.90;;;;;;5050752;28;20786;-58
2022/02/13 00:42:09;;;;;;;3.17;2.20;;;2.00;99.90;;;;;;5052655;28;20880;-56
2022/02/13 00:44:38;;;;;;;3.60;1.50;;;2.00;1.00;;;;;;5051066;28;20432;-56
2022/02/13 00:47:05;;;;;;;2.90;1.90;;;1.90;1.00;;;;;;5052923;28;20848;-58
2022/02/13 00:49:34;;;;;;;3.63;2.38;;;1.80;99.90;;;;;;5051999;28;20543;-58
2022/02/13 00:52:01;;;;;;;3.72;1.80;;;1.80;1.00;;;;;;5053784;28;20418;-58
2022/02/13 00:54:28;;;;;;;3.13;1.83;;;1.80;1.00;;;;;;5053431;28;20433;-55
2022/02/13 00:56:55;;;;;;;2.90;1.60;;;1.80;1.00;;;;;;5055292;28;20456;-57
2022/02/13 00:59:22;;;;;;;3.70;2.03;;;1.70;99.90;;;;;;5053922;28;20432;-58
2022/02/13 01:01:49;;;;;;;3.70;2.20;;;1.70;99.90;;;;;;5053795;28;20433;-55
2022/02/13 01:04:16;;;;;;;4.00;1.80;;;1.70;99.90;;;;;;5053867;28;20461;-58
2022/02/13 01:06:44;;;;;;;2.30;1.63;;;1.70;1.00;;;;;;5054415;28;20421;-56
2022/02/13 01:09:11;;;;;;;3.45;1.77;;;1.70;1.00;;;;;;5052310;28;20437;-56
2022/02/13 01:11:38;;;;;;;3.07;2.03;;;1.70;99.90;;;;;;5053418;28;20432;-57
2022/02/13 01:14:06;;;;;;;3.50;1.70;;;1.70;1.00;;;;;;5052306;28;20433;-57
2022/02/13 01:16:33;;;;;;;4.10;1.90;;;1.70;99.90;;;;;;5054177;28;20736;-58
2022/02/13 01:19:00;;;;;;;3.20;1.60;;;1.70;1.00;;;;;;5051990;28;20788;-58
2022/02/13 01:21:29;;;;;;;2.67;1.80;;;1.70;1.00;;;;;;5051763;28;20580;-57
2022/02/13 01:23:57;;;;;;;3.90;1.95;;;1.80;1.00;;;;;;5051444;28;20437;-58
2022/02/13 01:26:24;;;;;;;3.70;2.00;;;1.80;1.00;;;;;;5052596;28;20429;-56
2022/02/13 01:28:52;;;;;;;2.90;1.70;;;1.80;99.90;;;;;;5051279;28;20429;-55
2022/02/13 01:31:19;;;;;;;4.85;2.10;;;1.80;1.00;;;;;;5053390;28;20508;-57
2022/02/13 01:33:46;;;;;;;2.38;1.70;;;1.90;99.90;;;;;;5053503;28;20425;-57
2022/02/13 01:36:14;;;;;;;2.30;1.50;;;1.90;1.00;;;;;;5056702;28;20421;-55
2022/02/13 01:38:41;;;;;;;3.50;1.90;;;1.90;99.90;;;;;;5057798;28;20471;-56
2022/02/13 01:41:09;;;;;;;2.47;1.60;;;2.00;1.00;;;;;;5058653;28;20429;-58
2022/02/13 01:43:36;;;;;;;4.18;2.20;;;1.90;1.00;;;;;;5057465;28;20483;-57
2022/02/13 01:46:04;;;;;;;3.50;1.80;;;2.00;99.90;;;;;;5057300;28;20421;-57
2022/02/13 01:48:32;;;;;;;3.65;1.55;;;2.00;1.00;;;;;;5056555;28;20448;-58
2022/02/13 01:50:59;;;;;;;3.40;1.80;;;2.00;1.00;;;;;;5058049;28;20421;-57
2022/02/13 01:53:26;;;;;;;3.05;1.65;;;2.00;1.00;;;;;;5056079;28;20841;-57
2022/02/13 01:55:54;;;;;;;2.97;1.47;;;2.00;1.00;;;;;;5057258;28;20484;-55
2022/02/13 01:58:22;;;;;;;3.75;2.30;;;2.00;1.00;;;;;;5056199;28;20425;-57
2022/02/13 02:00:49;;;;;;;3.77;1.73;;;2.00;92.50;;;;;;5057986;28;20428;-58
2022/02/13 02:03:16;;;;;;;3.53;1.80;;;2.00;1.00;;;;;;5057105;28;20933;-58
2022/02/13 02:05:44;;;;;;;2.50;1.42;;;2.00;99.90;;;;;;5058371;28;20475;-55
2022/02/13 02:08:11;;;;;;;2.83;1.53;;;2.00;99.90;;;;;;5058023;28;20508;-56
2022/02/13 02:10:38;;;;;;;2.22;1.50;;;2.00;99.90;;;;;;5057901;28;20459;-59
2022/02/13 02:13:05;;;;;;;2.67;1.50;;;2.10;1.00;;;;;;5057927;28;20424;-57
2022/02/13 02:15:34;;;;;;;3.00;1.80;;;2.10;99.90;;;;;;5056981;28;20428;-57
2022/02/13 02:18:01;;;;;;;2.35;1.73;;;2.10;99.90;;;;;;5057821;28;20425;-55
2022/02/13 02:20:31;;;;;;;4.10;1.70;;;2.10;99.90;;;;;;5057327;28;20528;-58
2022/02/13 02:23:00;;;;;;;5.65;2.08;;;2.20;99.90;;;;;;5057879;28;20437;-54
2022/02/13 02:25:27;;;;;;;2.90;1.60;;;2.20;99.90;;;;;;5056711;28;20435;-57
2022/02/13 02:27:54;;;;;;;2.92;1.58;;;2.20;99.90;;;;;;5058108;28;20836;-57
2022/02/13 02:30:21;;;;;;;2.40;1.40;;;2.20;99.90;;;;;;5056630;28;20914;-57
2022/02/13 02:32:48;;;;;;;2.60;1.80;;;2.30;79.00;;;;;;5057675;28;20471;-57
2022/02/13 02:35:15;;;;;;;3.75;1.80;;;2.30;99.90;;;;;;5056546;28;20433;-57
2022/02/13 02:37:42;;;;;;;3.20;1.60;;;2.30;1.00;;;;;;5057698;28;20425;-57
2022/02/13 02:40:11;;;;;;;4.65;1.92;;;2.30;3.50;;;;;;5056502;28;20483;-57
2022/02/13 02:42:38;;;;;;;2.70;1.40;;;2.30;45.30;;;;;;5057227;28;20496;-57
2022/02/13 02:45:06;;;;;;;3.20;1.80;;;2.30;99.90;;;;;;5056690;28;20428;-58
2022/02/13 02:47:33;;;;;;;4.10;2.00;;;2.30;99.90;;;;;;5056497;28;20729;-58
2022/02/13 02:50:00;;;;;;;3.60;1.60;;;2.30;99.90;;;;;;5056547;28;20503;-57
2022/02/13 02:52:27;;;;;;;4.90;1.80;;;2.40;36.30;;;;;;5057442;28;20417;-57
2022/02/13 02:54:54;;;;;;;2.35;1.33;;;2.40;99.90;;;;;;5056347;28;20491;-55
2022/02/13 02:57:22;;;;;;;2.20;1.40;;;2.40;99.90;;;;;;5057441;28;20418;-55
2022/02/13 02:59:49;;;;;;;2.63;1.40;;;2.40;99.90;;;;;;5056213;28;20852;-57
2022/02/13 03:02:16;;;;;;;3.40;1.80;;;2.50;96.20;;;;;;5057242;28;20841;-58
2022/02/13 03:04:43;;;;;;;2.85;1.40;;;2.50;1.00;;;;;;5056289;28;20524;-60
2022/02/13 03:07:10;;;;;;;2.20;1.20;;;2.50;1.00;;;;;;5057018;28;20417;-55
2022/02/13 03:09:38;;;;;;;3.72;1.48;;;2.50;56.40;;;;;;5056145;28;20729;-57
2022/02/13 03:12:05;;;;;;;4.50;1.60;;;2.50;99.90;;;;;;5057205;28;20728;-57
2022/02/13 03:14:34;;;;;;;2.13;1.30;;;2.50;1.00;;;;;;5056093;28;20490;-58
2022/02/13 03:17:03;;;;;;;2.80;1.63;;;2.60;1.00;;;;;;5056933;28;20514;-58
2022/02/13 03:19:30;;;;;;;3.50;1.60;;;2.70;99.90;;;;;;5056056;28;20816;-58
2022/02/13 03:21:57;;;;;;;2.40;1.40;;;2.70;99.90;;;;;;5057185;28;20546;-58
2022/02/13 03:24:24;;;;;;;2.60;1.20;;;2.70;1.00;;;;;;5055612;28;20470;-57
2022/02/13 03:26:51;;;;;;;2.92;1.30;;;2.70;1.00;;;;;;5056929;28;20425;-61
2022/02/13 03:29:18;;;;;;;2.50;1.50;;;2.70;1.00;;;;;;5056043;28;20498;-58
2022/02/13 03:31:46;;;;;;;2.60;1.23;;;2.70;1.00;;;;;;5056478;28;20421;-57
2022/02/13 03:34:13;;;;;;;3.10;1.20;;;2.70;1.00;;;;;;5056058;28;20425;-57
2022/02/13 03:36:40;;;;;;;2.90;1.33;;;2.70;1.00;;;;;;5056662;28;20841;-58
2022/02/13 03:39:08;;;;;;;3.63;1.30;;;2.70;1.00;;;;;;5055722;28;20425;-58
2022/02/13 03:41:35;;;;;;;2.70;1.30;;;2.60;1.00;;;;;;5056917;28;20841;-57
2022/02/13 03:44:02;;;;;;;3.00;1.40;;;2.70;99.90;;;;;;5054882;28;20585;-58
2022/02/13 03:46:29;;;;;;;3.20;1.20;;;2.70;1.00;;;;;;5056251;28;20425;-56
2022/02/13 03:48:57;;;;;;;2.78;1.30;;;2.70;1.00;;;;;;5055475;28;20433;-58
2022/02/13 03:51:24;;;;;;;4.28;1.40;;;2.70;99.90;;;;;;5055570;28;20461;-57
2022/02/13 03:53:51;;;;;;;2.53;1.20;;;2.70;1.00;;;;;;5054941;28;20483;-58
2022/02/13 03:56:18;;;;;;;2.45;1.20;;;2.80;99.90;;;;;;5056552;28;20483;-56
2022/02/13 03:58:45;;;;;;;2.90;1.30;;;2.80;1.00;;;;;;5054976;28;20788;-57
2022/02/13 04:01:12;;;;;;;3.03;1.10;;;2.80;1.00;;;;;;5056217;28;20476;-59
2022/02/13 04:03:39;;;;;;;1.90;1.20;;;2.80;1.00;;;;;;5054774;28;20441;-57
2022/02/13 04:06:07;;;;;;;2.92;1.20;;;2.80;1.00;;;;;;5055975;28;20768;-57
2022/02/13 04:08:34;;;;;;;3.53;1.60;;;2.90;1.00;;;;;;5055181;28;20437;-59
2022/02/13 04:11:01;;;;;;;2.20;1.40;;;3.00;99.90;;;;;;5055908;28;20459;-57
2022/02/13 04:13:28;;;;;;;2.10;1.20;;;2.90;1.00;;;;;;5054741;28;20501;-56
2022/02/13 04:15:55;;;;;;;2.35;1.33;;;2.80;21.80;;;;;;5056255;28;20444;-58
2022/02/13 04:18:23;;;;;;;2.60;1.20;;;2.80;1.00;;;;;;5054759;28;20784;-58
2022/02/13 04:20:50;;;;;;;2.70;1.20;;;2.70;1.00;;;;;;5055732;28;20417;-58
2022/02/13 04:26:44;;;;;;;3.42;1.60;;;2.80;1.00;;;;;;5049798;28;20425;-57
2022/02/13 04:29:11;;;;;;;3.03;1.10;;;2.70;1.00;;;;;;5055763;28;20421;-58
2022/02/13 04:31:39;;;;;;;2.28;1.20;;;2.70;99.90;;;;;;5054510;28;20490;-57
2022/02/13 04:34:07;;;;;;;2.70;1.30;;;2.70;99.90;;;;;;5055421;28;20516;-57
2022/02/13 04:36:34;;;;;;;2.60;1.50;;;2.70;1.00;;;;;;5054594;28;20490;-59
2022/02/13 04:39:01;;;;;;;2.40;1.20;;;2.70;99.90;;;;;;5055694;28;20483;-57
2022/02/13 04:41:28;;;;;;;2.15;1.10;;;2.70;99.90;;;;;;5054314;28;20429;-57
2022/02/13 04:43:57;;;;;;;3.00;1.35;;;2.70;99.90;;;;;;5055522;28;20513;-57
2022/02/13 04:46:24;;;;;;;1.67;1.10;;;2.70;99.90;;;;;;5054165;28;20580;-56
2022/02/13 04:48:51;;;;;;;2.80;1.20;;;2.70;99.90;;;;;;5055305;28;20487;-57
2022/02/13 04:51:18;;;;;;;3.08;1.40;;;2.70;22.10;;;;;;5054225;28;20507;-58
2022/02/13 04:53:45;;;;;;;2.10;1.10;;;2.80;1.00;;;;;;5055187;28;20821;-56
2022/02/13 04:56:11;;;;;;;2.75;1.17;;;2.80;1.00;;;;;;5054137;28;20495;-58
2022/02/13 04:58:38;;;;;;;2.22;1.10;;;2.80;1.00;;;;;;5055053;28;20428;-58
2022/02/13 05:01:07;;;;;;;1.50;1.10;;;2.80;1.00;;;;;;5054238;28;20465;-58
2022/02/13 05:03:34;;;;;;;3.30;1.30;;;2.80;1.00;;;;;;5055178;28;20437;-59
2022/02/13 05:06:01;;;;;;;2.40;1.20;;;2.80;99.90;;;;;;5054115;28;20429;-58
2022/02/13 05:08:28;;;;;;;1.98;1.10;;;2.80;1.00;;;;;;5055364;28;20422;-58
2022/02/13 05:10:55;;;;;;;2.30;1.30;;;2.80;1.00;;;;;;5053366;28;20762;-58
2022/02/13 05:13:22;;;;;;;1.63;1.02;;;2.90;1.00;;;;;;5054867;28;20421;-58
2022/02/13 05:15:49;;;;;;;3.15;1.10;;;2.90;1.00;;;;;;5053858;28;20515;-58
2022/02/13 05:18:17;;;;;;;3.20;1.20;;;3.00;1.00;;;;;;5054954;28;20784;-57
2022/02/13 05:20:47;;;;;;;1.65;1.10;;;3.00;1.00;;;;;;5053739;28;20507;-58
2022/02/13 05:23:14;;;;;;;2.13;1.10;;;3.10;99.90;;;;;;5054630;28;21138;-58
2022/02/13 05:25:41;;;;;;;2.10;1.10;;;3.10;99.90;;;;;;5053411;28;20780;-58
2022/02/13 05:28:07;;;;;;;1.77;1.00;;;3.10;99.90;;;;;;5054835;28;20421;-59
2022/02/13 05:30:34;;;;;;;1.60;1.10;;;3.20;1.00;;;;;;5053242;28;20472;-57
2022/02/13 05:33:01;;;;;;;3.10;1.00;;;3.20;1.00;;;;;;5054254;28;20448;-59
2022/02/13 05:35:29;;;;;;;2.50;1.05;;;3.30;1.00;;;;;;5052676;28;20421;-59
2022/02/13 05:37:56;;;;;;;1.55;1.10;;;3.40;1.00;;;;;;5053675;28;20484;-58
2022/02/13 05:40:23;;;;;;;2.30;1.00;;;3.50;1.00;;;;;;5052959;28;20429;-57
2022/02/13 05:42:50;;;;;;;1.70;0.90;;;3.50;1.00;;;;;;5054543;28;20499;-57
2022/02/13 05:45:17;;;;;;;1.70;0.98;;;3.70;99.90;;;;;;5053573;28;20792;-58
2022/02/13 05:47:46;;;;;;;1.60;0.90;;;3.80;1.00;;;;;;5054906;28;20421;-57
2022/02/13 05:50:13;;;;;;;1.80;1.10;;;3.80;1.00;;;;;;5053470;28;20428;-57
2022/02/13 05:52:41;;;;;;;2.78;1.00;;;3.90;1.00;;;;;;5054466;28;20487;-58
2022/02/13 05:55:09;;;;;;;1.55;0.90;;;3.90;1.00;;;;;;5054481;28;20832;-58
2022/02/13 05:57:40;;;;;;;1.83;0.90;;;3.90;1.00;;;;;;5053811;28;20502;-58
2022/02/13 06:00:09;;;;;;;2.13;1.10;;;4.00;99.90;;;;;;5054699;28;20437;-58
2022/02/13 06:02:36;;;;;;;1.70;0.95;;;4.00;1.00;;;;;;5053540;28;20437;-56
2022/02/13 06:05:04;;;;;;;1.83;0.90;;;4.00;99.90;;;;;;5054504;28;20496;-56
2022/02/13 06:07:37;;;;;;;2.20;1.00;;;4.00;99.90;;;;;;5053616;28;20437;-57
2022/02/13 06:10:06;;;;;;;2.50;0.97;;;4.10;99.90;;;;;;5054345;28;20483;-57
2022/02/13 06:12:33;;;;;;;3.00;1.10;;;4.00;99.90;;;;;;5054056;28;20946;-56
2022/02/13 06:15:00;;;;;;;2.40;1.00;;;4.00;99.90;;;;;;5054352;28;20443;-58
2022/02/13 06:17:27;;;;;;;2.20;0.90;;;4.00;99.90;;;;;;5052839;28;20433;-57
2022/02/13 06:19:54;;;;;;;1.70;0.90;;;4.00;99.90;;;;;;5054577;28;20417;-55
2022/02/13 06:22:22;;;;;;;2.50;0.90;;;4.00;99.90;;;;;;5053235;28;20938;-57
2022/02/13 06:24:48;;;;;;;2.60;1.00;;;4.00;99.90;;;;;;5057686;28;20818;-56
2022/02/13 06:27:17;;;;;;;1.60;1.00;;;4.10;99.90;;;;;;5057781;28;20429;-58
2022/02/13 06:29:44;;;;;;;1.80;0.90;;;4.10;99.90;;;;;;5057608;28;20710;-58
2022/02/13 06:32:11;;;;;;;2.25;0.90;;;4.10;99.90;;;;;;5057189;28;20421;-57
2022/02/13 06:34:38;;;;;;;1.67;0.90;;;4.00;99.90;;;;;;5049856;28;20421;-58
2022/02/13 06:37:05;;;;;;;2.67;1.10;;;4.00;99.90;;;;;;5056824;28;20429;-57
2022/02/13 06:39:32;;;;;;;1.60;0.90;;;3.90;1.00;;;;;;5057605;28;20837;-56
2022/02/13 06:41:59;;;;;;;1.60;0.90;;;3.90;99.90;;;;;;5056951;28;20499;-57
2022/02/13 06:44:27;;;;;;;2.53;0.80;;;3.90;1.00;;;;;;5057302;28;20434;-58
2022/02/13 06:46:54;;;;;;;1.27;0.80;;;3.90;99.90;;;;;;5056575;28;20432;-56
2022/02/13 06:49:21;;;;;;;1.98;0.80;;;3.90;1.00;;;;;;5057390;28;20421;-58
2022/02/13 06:51:48;;;;;;;1.60;1.00;;;3.90;99.90;;;;;;5056400;28;20487;-57
2022/02/13 06:54:15;;;;;;;1.57;0.90;;;3.90;99.90;;;;;;5057233;28;20414;-58
2022/02/13 06:56:42;;;;;;;2.23;0.90;;;3.90;99.90;;;;;;5056535;28;20429;-57
2022/02/13 06:59:09;;;;;;;1.80;0.90;;;3.90;99.90;;;;;;5057017;28;20429;-58
2022/02/13 07:01:37;;;;;;;1.65;0.82;;;3.80;1.00;;;;;;5047565;28;20495;-58
2022/02/13 07:04:04;;;;;;;2.22;0.90;;;3.80;1.00;;;;;;5057404;28;20445;-60
2022/02/13 07:06:31;;;;;;;1.30;0.80;;;3.80;1.00;;;;;;5055793;28;20535;-58
2022/02/13 07:08:58;;;;;;;1.95;0.90;;;3.80;1.00;;;;;;5057133;28;20414;-58
2022/02/13 07:11:25;;;;;;;1.52;1.00;;;3.90;1.00;;;;;;5055774;28;20495;-59
2022/02/13 07:13:52;;;;;;;2.65;1.00;;;3.90;1.00;;;;;;5056831;28;20934;-58
2022/02/13 07:16:19;;;;;;;1.42;0.80;;;4.00;1.00;;;;;;5055243;28;20425;-58
2022/02/13 07:18:48;;;;;;;2.00;0.98;;;4.00;99.90;;;;;;5056996;28;20421;-57
2022/02/13 07:21:15;;;;;;;2.60;0.90;;;4.10;1.00;;;;;;5055361;28;20467;-58
2022/02/13 07:23:42;;;;;;;1.48;0.90;;;4.20;99.90;;;;;;5056848;28;20445;-59
2022/02/13 07:26:10;;;;;;;1.60;0.90;;;4.20;99.90;;;;;;5055363;28;20433;-58
2022/02/13 07:31:21;;;;;;;2.10;0.90;;;4.30;99.90;;;;;;5055195;28;20420;-58
2022/02/13 07:33:50;;;;;;;1.20;0.80;;;4.30;99.90;;;;;;5056186;28;20413;-58
2022/02/13 07:36:17;;;;;;;2.80;1.00;;;4.30;99.90;;;;;;5055124;28;20469;-58
2022/02/13 07:38:44;;;;;;;2.10;0.93;;;4.30;1.00;;;;;;5056182;28;20845;-58
2022/02/13 07:41:11;;;;;;;2.57;0.90;;;4.30;1.00;;;;;;5054461;28;20492;-58
2022/02/13 07:43:38;;;;;;;1.77;1.10;;;4.40;1.00;;;;;;5056148;28;20476;-58
2022/02/13 07:46:05;;;;;;;2.38;0.90;;;4.50;99.90;;;;;;5055010;28;20732;-59
2022/02/13 07:48:32;;;;;;;1.80;0.90;;;4.50;99.90;;;;;;5055933;28;20432;-58
2022/02/13 07:51:01;;;;;;;2.77;0.90;;;4.60;99.90;;;;;;5055280;28;20460;-58
2022/02/13 07:53:28;;;;;;;2.88;0.90;;;4.60;99.90;;;;;;5056132;28;20432;-58
2022/02/13 07:55:55;;;;;;;2.90;0.95;;;4.70;99.90;;;;;;5055177;28;20503;-58
2022/02/13 07:58:22;;;;;;;1.50;0.88;;;4.70;99.90;;;;;;5055734;28;20728;-58
2022/02/13 08:00:49;;;;;;;1.60;0.80;;;4.70;99.90;;;;;;5054357;28;20429;-58
2022/02/13 08:03:16;;;;;;;1.60;0.90;;;4.70;99.90;;;;;;5056096;28;20702;-58
2022/02/13 08:05:44;;;;;;;1.98;0.90;;;4.70;99.90;;;;;;5054489;28;20472;-58
2022/02/13 08:08:12;;;;;;;1.52;0.90;;;4.80;96.10;;;;;;5055911;28;20487;-57
2022/02/13 08:10:41;;;;;;;1.63;0.93;;;4.90;30.20;;;;;;5054612;28;20429;-58
2022/02/13 08:13:08;;;;;;;3.22;1.00;;;4.90;1.00;;;;;;5055876;28;20508;-58
2022/02/13 08:15:35;;;;;;;2.10;1.00;;;5.00;1.00;;;;;;5054385;28;20430;-58
2022/02/13 08:18:09;;;;;;;1.30;0.90;;;5.10;1.00;;;;;;5054608;28;20483;-59
2022/02/13 08:20:37;;;;;;;1.45;0.90;;;5.20;1.00;;;;;;5063139;28;20468;-58
2022/02/13 08:23:05;;;;;;;2.10;0.90;;;5.30;1.00;;;;;;5070681;28;20490;-58
2022/02/13 08:25:33;;;;;;;2.20;1.00;;;5.30;1.00;;;;;;5073319;28;20440;-59
2022/02/13 08:28:00;;;;;;;1.40;0.90;;;5.40;1.00;;;;;;5074485;28;20415;-58
2022/02/13 08:30:27;;;;;;;2.70;1.00;;;5.50;1.00;;;;;;5071246;28;20431;-58
2022/02/13 08:32:57;;;;;;;1.80;0.90;;;5.60;1.00;;;;;;5074584;28;20424;-58
2022/02/13 08:35:25;;;;;;;2.00;0.98;;;5.70;1.00;;;;;;5066900;28;20431;-59
2022/02/13 08:37:52;;;;;;;2.40;0.90;;;5.70;1.00;;;;;;5071836;28;20439;-57
2022/02/13 08:40:19;;;;;;;2.58;1.00;;;5.80;1.00;;;;;;5061609;28;20462;-59
2022/02/13 08:42:47;;;;;;;1.30;1.00;;;5.90;1.00;;;;;;5074594;28;20516;-59
2022/02/13 08:45:14;;;;;;;2.10;1.10;;;5.90;1.00;;;;;;5068708;28;20433;-59
2022/02/13 08:47:41;;;;;;;2.60;0.90;;;5.90;1.00;;;;;;5073451;28;20423;-59
2022/02/13 08:50:09;;;;;;;2.28;1.00;;;5.90;1.00;;;;;;5066810;28;20423;-59
2022/02/13 08:52:36;;;;;;;2.50;0.90;;;6.00;1.00;;;;;;5066028;28;20774;-59
2022/02/13 08:55:03;;;;;;;2.30;1.00;;;6.00;1.00;;;;;;5067020;28;20503;-59
2022/02/13 08:57:30;;;;;;;1.88;1.10;;;6.00;1.00;;;;;;5066787;28;20525;-59
2022/02/13 08:59:58;;;;;;;2.00;1.00;;;6.00;1.00;;;;;;5055476;28;20473;-59
2022/02/13 09:02:25;;;;;;;2.75;1.20;;;6.10;1.00;;;;;;5056983;28;20465;-59
2022/02/13 09:04:52;;;;;;;2.13;0.93;;;6.20;1.00;;;;;;5058770;28;20470;-59
2022/02/13 09:07:20;;;;;;;3.05;1.00;;;6.20;1.00;;;;;;5067852;28;20485;-59
2022/02/13 09:09:47;;;;;;;2.10;1.00;;;6.30;1.00;;;;;;5054359;28;20443;-59
2022/02/13 09:12:19;;;;;;;2.70;1.10;;;6.30;1.00;;;;;;5052955;28;20433;-57
2022/02/13 09:14:46;;;;;;;1.60;1.00;;;6.40;1.00;;;;;;5058225;28;20434;-58
2022/02/13 09:17:14;;;;;;;2.17;1.00;;;6.50;1.00;;;;;;5068064;28;20524;-58
2022/02/13 09:19:41;;;;;;;2.90;1.10;;;6.50;1.00;;;;;;5056850;28;20500;-58
2022/02/13 09:22:08;;;;;;;1.60;1.10;;;6.60;1.00;;;;;;5053524;28;20740;-58
2022/02/13 09:24:35;;;;;;;3.75;1.33;;;6.60;1.00;;;;;;5057388;28;20509;-59
2022/02/13 09:27:03;;;;;;;2.08;1.08;;;6.70;1.00;;;;;;5066128;28;20439;-58
2022/02/13 09:29:30;;;;;;;3.10;1.20;;;6.90;99.90;;;;;;5060183;28;20517;-58
2022/02/13 09:31:57;;;;;;;2.80;1.10;;;6.90;99.90;;;;;;5060813;28;20441;-58
2022/02/13 09:34:28;;;;;;;2.58;1.00;;;7.00;99.90;;;;;;5061434;28;20437;-57
2022/02/13 09:36:55;;;;;;;2.17;1.05;;;7.00;99.90;;;;;;5065090;28;20461;-58
2022/02/13 09:39:23;;;;;;;2.60;1.00;;;7.00;99.90;;;;;;5061858;28;20859;-58
2022/02/13 09:41:50;;;;;;;1.80;1.05;;;7.10;99.90;;;;;;5062300;28;20466;-58
2022/02/13 09:44:18;;;;;;;4.18;1.13;;;7.10;99.90;;;;;;5068396;28;20419;-58
2022/02/13 09:46:46;;;;;;;2.80;1.20;;;7.10;99.90;;;;;;5066907;28;20477;-58
2022/02/13 09:49:16;;;;;;;2.60;1.10;;;7.10;99.90;;;;;;5059119;28;20484;-59
2022/02/13 09:51:45;;;;;;;2.40;1.10;;;7.20;99.90;;;;;;5055169;28;20971;-59
2022/02/13 09:54:12;;;;;;;1.77;1.00;;;7.30;99.90;;;;;;5053219;28;20939;-59
2022/02/13 09:56:39;;;;;;;2.40;1.10;;;7.40;99.90;;;;;;5051233;28;20463;-58
2022/02/13 09:59:08;;;;;;;2.10;1.00;;;7.40;99.90;;;;;;5058380;28;20444;-58
2022/02/13 10:01:36;;;;;;;2.28;1.10;;;7.50;99.90;;;;;;5066273;28;20502;-58
2022/02/13 10:04:04;;;;;;;2.70;1.13;;;7.60;99.90;;;;;;5062640;28;20485;-59
2022/02/13 10:06:31;;;;;;;3.83;1.20;;;7.70;99.90;;;;;;5070042;28;20500;-59
2022/02/13 10:09:00;;;;;;;3.05;1.08;;;7.80;99.90;;;;;;5065259;28;20479;-59
2022/02/13 10:11:29;;;;;;;3.30;1.10;;;7.90;99.90;;;;;;5060852;28;20710;-59
2022/02/13 10:13:57;;;;;;;2.55;1.15;;;8.00;99.90;;;;;;5070382;28;20743;-58
2022/02/13 10:16:26;;;;;;;3.40;1.20;;;8.10;99.90;;;;;;5069175;28;20431;-59
2022/02/13 10:18:55;;;;;;;2.00;1.20;;;8.10;99.90;;;;;;5071779;28;20451;-60
2022/02/13 10:21:39;;;;;;;1.70;1.00;;;8.20;99.90;;;;;;5061455;28;20479;-59
2022/02/13 10:24:29;;;;;;;2.60;1.30;;;8.30;99.90;;;;;;5060617;28;20441;-63
2022/02/13 10:27:08;;;;;;;2.10;1.00;;;8.50;99.90;;;;;;5059292;28;20499;-64
2022/02/13 10:29:37;;;;;;;3.30;1.00;;;8.50;97.30;;;;;;5064274;28;20442;-65
2022/02/13 10:32:19;;;;;;;2.40;1.00;;;8.70;90.80;;;;;;5070215;28;20463;-64
2022/02/13 10:35:04;;;;;;;3.10;1.20;;;8.80;58.80;;;;;;5062608;28;20432;-64
2022/02/13 10:37:45;;;;;;;1.50;1.20;;;8.90;40.10;;;;;;5060340;28;20442;-65
2022/02/13 10:40:16;;;;;;;2.50;1.00;;;9.00;21.20;;;;;;5058350;28;20435;-64
2022/02/13 10:42:43;;;;;;;2.53;1.05;;;9.10;2.60;;;;;;5070322;28;20423;-64
2022/02/13 10:45:22;;;;;;;2.00;1.00;;;9.20;1.00;;;;;;5074414;28;20463;-64
2022/02/13 10:51:08;;;;;;;3.10;1.05;;;9.20;1.00;;;;;;5034599;28;20434;-63
2022/02/13 10:53:35;;;;;;;2.40;1.20;;;9.30;1.00;;;;;;5070753;28;20815;-64
2022/02/13 10:56:05;;;;;;;2.10;1.20;;;9.40;1.00;;;;;;5060230;28;20429;-64
2022/02/13 10:58:32;;;;;;;2.53;1.00;;;9.50;1.00;;;;;;5071729;28;20576;-65
2022/02/13 11:01:01;;;;;;;1.73;1.20;;;9.60;1.00;;;;;;5070211;28;20849;-63
2022/02/13 11:03:32;;;;;;;2.30;1.00;;;9.80;1.00;;;;;;5056381;28;20421;-65
2022/02/13 11:06:01;;;;;;;2.40;1.20;;;10.00;1.00;;;;;;5063467;28;20522;-65
2022/02/13 11:08:31;;;;;;;3.30;1.10;;;10.10;1.00;;;;;;5053857;28;20425;-64
2022/02/13 11:10:59;;;;;;;1.60;1.00;;;10.30;1.00;;;;;;5062138;28;20466;-64
2022/02/13 11:13:30;;;;;;;1.50;1.15;;;10.30;1.00;;;;;;5055215;28;20487;-65
2022/02/13 11:15:57;;;;;;;2.50;1.40;;;10.40;1.00;;;;;;5053807;28;20417;-64
2022/02/13 11:18:27;;;;;;;3.22;1.27;;;10.50;1.00;;;;;;5072226;28;20419;-64
2022/02/13 11:20:55;;;;;;;2.60;1.20;;;10.60;1.00;;;;;;5054180;28;20828;-64
2022/02/13 11:23:24;;;;;;;2.45;1.20;;;10.80;1.00;;;;;;5067131;28;20502;-64
2022/02/13 11:25:56;;;;;;;2.58;1.20;;;10.80;1.00;;;;;;5074821;28;20496;-65
2022/02/13 11:28:27;;;;;;;3.00;1.10;;;11.00;1.00;;;;;;5062143;28;20771;-65
2022/02/13 11:30:57;;;;;;;2.10;1.30;;;11.10;1.00;;;;;;5063644;28;20527;-64
2022/02/13 11:33:48;;;;;;;2.30;1.27;;;11.20;1.00;;;;;;5071118;28;20893;-66
2022/02/13 11:36:15;;;;;;;1.90;1.00;;;11.20;1.00;;;;;;5033720;28;20440;-64
2022/02/13 11:38:56;;;;;;;1.50;0.95;;;11.20;1.00;;;;;;5055455;28;20840;-65
2022/02/13 11:42:08;;;;;;;1.92;1.10;;;11.20;1.00;;;;;;5054427;28;20573;-64
2022/02/13 11:44:38;;;;;;;1.50;0.90;;;11.40;1.00;;;;;;5055503;28;20421;-65
2022/02/13 11:47:09;;;;;;;1.90;0.88;;;11.50;1.00;;;;;;5072537;28;20420;-63
2022/02/13 11:50:21;;;;;;;1.80;0.80;;;11.60;1.00;;;;;;5070121;28;20427;-65
2022/02/13 11:53:05;;;;;;;2.57;0.80;;;11.70;1.00;;;;;;5054723;28;20888;-65
2022/02/13 11:55:35;;;;;;;1.35;0.80;;;11.80;1.00;;;;;;5062334;28;20481;-64
2022/02/13 11:58:12;;;;;;;1.63;0.80;;;11.80;1.00;;;;;;5071661;28;20928;-64
2022/02/13 12:00:50;;;;;;;1.40;0.80;;;11.90;1.00;;;;;;5052975;28;20888;-64
2022/02/13 12:03:32;;;;;;;2.30;0.83;;;12.00;1.00;;;;;;5069448;28;20423;-66
2022/02/13 12:06:38;;;;;;;2.70;0.80;;;12.00;1.00;;;;;;5052877;28;20441;-65
2022/02/13 12:09:09;;;;;;;1.40;0.80;;;11.90;1.00;;;;;;5053696;28;20498;-64
2022/02/13 12:11:38;;;;;;;1.73;0.77;;;12.00;1.00;;;;;;5052130;28;20460;-65
2022/02/13 12:14:20;;;;;;;1.90;0.70;;;12.10;1.00;;;;;;5054403;28;20849;-65
2022/02/13 12:16:52;;;;;;;1.60;0.80;;;12.00;1.00;;;;;;5053565;28;20433;-65
2022/02/13 12:19:37;;;;;;;1.80;0.90;;;11.90;1.00;;;;;;5053741;28;20484;-64
2022/02/13 12:22:08;;;;;;;1.70;0.80;;;12.00;1.00;;;;;;5052887;28;20436;-64
2022/02/13 12:24:35;;;;;;;1.15;0.75;;;12.20;1.00;;;;;;5070622;28;20493;-67
2022/02/13 12:27:03;;;;;;;1.33;0.75;;;12.00;1.00;;;;;;5070637;28;20436;-66
2022/02/13 12:29:30;;;;;;;1.50;0.60;;;11.90;1.00;;;;;;5071511;28;20431;-63
2022/02/13 12:32:08;;;;;;;1.70;0.80;;;12.00;1.00;;;;;;5069099;28;20556;-67
2022/02/13 12:34:58;;;;;;;1.40;0.70;;;12.00;1.00;;;;;;5062141;28;20906;-65
2022/02/13 12:37:38;;;;;;;1.65;0.80;;;12.10;1.00;;;;;;5057486;28;20435;-64
2022/02/13 12:40:07;;;;;;;2.60;0.70;;;12.20;1.00;;;;;;5071655;28;20442;-66
2022/02/13 12:42:37;;;;;;;1.20;0.70;;;12.10;1.00;;;;;;5058019;28;20436;-66
2022/02/13 12:45:08;;;;;;;2.58;0.80;;;12.10;1.00;;;;;;5050328;28;20431;-66
2022/02/13 12:47:36;;;;;;;1.30;0.70;;;12.00;1.00;;;;;;5058227;28;20427;-65
2022/02/13 12:50:08;;;;;;;1.40;0.80;;;12.00;1.00;;;;;;5072269;28;20743;-65
2022/02/13 12:52:36;;;;;;;1.70;0.70;;;12.10;1.00;;;;;;5054930;28;20857;-68
2022/02/13 12:55:05;;;;;;;1.60;0.80;;;12.10;1.00;;;;;;5054820;28;20487;-64
2022/02/13 12:57:32;;;;;;;2.00;0.70;;;12.10;1.00;;;;;;5073271;28;20435;-64
2022/02/13 12:59:59;;;;;;;2.70;0.80;;;12.10;1.00;;;;;;5074143;28;20419;-65
2022/02/13 13:02:27;;;;;;;1.40;0.80;;;12.10;1.00;;;;;;5074372;28;20489;-64
2022/02/13 13:04:54;;;;;;;2.80;0.80;;;12.00;1.00;;;;;;5074329;28;20497;-64
2022/02/13 13:07:23;;;;;;;1.30;0.70;;;12.00;1.00;;;;;;5072828;28;20436;-65
2022/02/13 13:09:51;;;;;;;1.40;0.80;;;11.90;1.00;;;;;;5074261;28;20523;-65
2022/02/13 13:12:20;;;;;;;1.40;0.70;;;11.90;1.00;;;;;;5071303;28;20428;-65
2022/02/13 13:14:55;;;;;;;1.50;0.80;;;11.90;1.00;;;;;;5057914;28;20715;-64
2022/02/13 13:17:23;;;;;;;2.08;0.80;;;11.80;1.00;;;;;;5062991;28;20920;-66